Enter the Airport ICAO Code

Search by Airport or City

Current Weather

LEAM | Almería Airport

Almería, Andalusia, Spain

Last Update 11 Minutes Ago

Clear Sky

Temperature of 19 ºC

Light Winds from Variable Directions

Temperature

19 ºC

Dew Point Temperature

15 ºC

Relative Humidity

77.73 %

Wind Direction

Variable

Wind Velocity

4 km/h (02 kt)

Gusts

None

Visibility

No Significant Reductions

Sea Level Pressure

1020 hPa (Hectopascals)

Layers of Clouds

None

METAR LEAM 202200Z AUTO VRB02KT CAVOK 19/15 Q1020

Weather Forecast

LEAM | Almería Airport

Almería, Andalusia, Spain

Forecast valid for the next 20 Hours

From now on it is expected:

Moderate Winds from West

In 3 to 5 hours it is expected the begining of:

Light Winds from Variable Directions

In 10 to 12 hours it is expected the begining of:

Moderate Winds from SouthWest

Maximum Temperature

27 ºC in 16 Hours

Minimum Temperature

17 ºC in 9 Hours

TAF LEAM 201700Z 2018/2118 20006KT CAVOK TX27/2114Z TN17/2107Z BECMG 2019/2021 26010KT BECMG 2101/2103 VRB02KT BECMG 2108/2110 22010KT